East Case, Maryland
Current Conditions -  °F | °C
As of 11:54 PM on Wednesday 22 Oct 2014 (Local Time) from KBWI Reporting Station
Broken Clouds Broken Clouds  
Wind Chill: 53°   Ceiling: 5500
Heat Index: 53°   Visibility: 10mi
Dew Point: 43°   Wind: 15mph
Humidity: 69%   Direction: 300°WNW
Pressure: 29.89"   Gusts: 24mph
Location:  39.2974°N, 76.6074°W
Report Text: KBWI 230354Z 30013G21KT 10SM SCT033 BKN055 12/06 A2989 RMK AO2 SLP121 T01170061
Loading
Personal Weather Stations






























Interactive Weather Map
Tropical Storm Tracking
New forecast layout! Learn more

10-Day Weather Forecast

Advertisements
Track Severe Weather on mobile